sensor_id;sensor_type;location;lat;lon;timestamp;pressure;altitude;pressure_sealevel;temperature;humidity
38852;BME280;24605;50.092;9.182;2022-12-17T00:01:12;98302.06;;;-9.42;100.00
38852;BME280;24605;50.092;9.182;2022-12-17T00:03:56;98304.88;;;-9.55;100.00
38852;BME280;24605;50.092;9.182;2022-12-17T00:06:40;98312.72;;;-9.66;100.00
38852;BME280;24605;50.092;9.182;2022-12-17T00:09:25;98301.09;;;-9.74;100.00
38852;BME280;24605;50.092;9.182;2022-12-17T00:12:09;98300.19;;;-9.72;100.00
38852;BME280;24605;50.092;9.182;2022-12-17T00:14:53;98306.63;;;-9.57;100.00
38852;BME280;24605;50.092;9.182;2022-12-17T00:17:37;98314.34;;;-9.62;100.00
38852;BME280;24605;50.092;9.182;2022-12-17T00:20:21;98309.34;;;-9.65;100.00
38852;BME280;24605;50.092;9.182;2022-12-17T00:23:05;98307.72;;;-9.69;100.00
38852;BME280;24605;50.092;9.182;2022-12-17T00:25:51;98308.47;;;-9.64;100.00
38852;BME280;24605;50.092;9.182;2022-12-17T00:28:36;98314.47;;;-9.68;100.00
38852;BME280;24605;50.092;9.182;2022-12-17T00:31:29;98299.44;;;-9.77;100.00
38852;BME280;24605;50.092;9.182;2022-12-17T00:34:13;98284.63;;;-9.96;100.00
38852;BME280;24605;50.092;9.182;2022-12-17T00:36:58;98317.66;;;-9.60;100.00
38852;BME280;24605;50.092;9.182;2022-12-17T00:39:42;98295.78;;;-9.64;100.00
38852;BME280;24605;50.092;9.182;2022-12-17T00:42:27;98323.75;;;-9.67;100.00
38852;BME280;24605;50.092;9.182;2022-12-17T00:45:11;98312.28;;;-9.83;100.00
38852;BME280;24605;50.092;9.182;2022-12-17T00:47:56;98314.09;;;-9.90;100.00
38852;BME280;24605;50.092;9.182;2022-12-17T00:50:40;98332.00;;;-9.57;100.00
38852;BME280;24605;50.092;9.182;2022-12-17T00:53:24;98329.59;;;-9.63;100.00
38852;BME280;24605;50.092;9.182;2022-12-17T00:56:08;98322.16;;;-9.71;100.00
38852;BME280;24605;50.092;9.182;2022-12-17T00:58:53;98332.94;;;-9.61;100.00
38852;BME280;24605;50.092;9.182;2022-12-17T01:01:37;98338.66;;;-9.53;100.00
38852;BME280;24605;50.092;9.182;2022-12-17T01:04:21;98343.03;;;-9.60;100.00
38852;BME280;24605;50.092;9.182;2022-12-17T01:07:05;98334.38;;;-9.90;100.00
38852;BME280;24605;50.092;9.182;2022-12-17T01:09:49;98341.94;;;-9.87;100.00
38852;BME280;24605;50.092;9.182;2022-12-17T01:12:33;98342.75;;;-9.86;100.00
38852;BME280;24605;50.092;9.182;2022-12-17T01:15:18;98345.78;;;-9.69;100.00
38852;BME280;24605;50.092;9.182;2022-12-17T01:18:02;98355.06;;;-9.68;100.00
38852;BME280;24605;50.092;9.182;2022-12-17T01:20:46;98352.03;;;-9.85;100.00
38852;BME280;24605;50.092;9.182;2022-12-17T01:23:30;98354.44;;;-9.78;100.00
38852;BME280;24605;50.092;9.182;2022-12-17T01:26:14;98340.34;;;-9.93;100.00
38852;BME280;24605;50.092;9.182;2022-12-17T01:28:58;98357.78;;;-9.76;100.00
38852;BME280;24605;50.092;9.182;2022-12-17T01:31:44;98361.94;;;-9.73;100.00
38852;BME280;24605;50.092;9.182;2022-12-17T01:34:28;98367.94;;;-9.77;100.00
38852;BME280;24605;50.092;9.182;2022-12-17T01:37:11;98378.22;;;-9.83;100.00
38852;BME280;24605;50.092;9.182;2022-12-17T01:39:55;98378.97;;;-9.80;100.00
38852;BME280;24605;50.092;9.182;2022-12-17T01:42:41;98381.56;;;-9.81;100.00
38852;BME280;24605;50.092;9.182;2022-12-17T01:45:27;98386.25;;;-9.63;100.00
38852;BME280;24605;50.092;9.182;2022-12-17T01:48:17;98384.72;;;-9.70;100.00
38852;BME280;24605;50.092;9.182;2022-12-17T01:51:01;98390.66;;;-9.72;100.00
38852;BME280;24605;50.092;9.182;2022-12-17T01:53:46;98399.22;;;-9.78;100.00
38852;BME280;24605;50.092;9.182;2022-12-17T01:56:32;98402.56;;;-9.76;100.00
38852;BME280;24605;50.092;9.182;2022-12-17T01:59:16;98399.09;;;-9.70;100.00
38852;BME280;24605;50.092;9.182;2022-12-17T02:02:02;98410.28;;;-9.81;100.00
38852;BME280;24605;50.092;9.182;2022-12-17T02:04:47;98397.63;;;-9.82;100.00
38852;BME280;24605;50.092;9.182;2022-12-17T02:07:48;98409.47;;;-9.81;100.00
38852;BME280;24605;50.092;9.182;2022-12-17T02:10:39;98400.31;;;-9.88;100.00
38852;BME280;24605;50.092;9.182;2022-12-17T02:13:30;98404.53;;;-9.89;100.00
38852;BME280;24605;50.092;9.182;2022-12-17T02:16:19;98419.25;;;-9.63;100.00
38852;BME280;24605;50.092;9.182;2022-12-17T02:22:22;98411.53;;;-9.58;100.00
38852;BME280;24605;50.092;9.182;2022-12-17T02:25:15;98396.78;;;-9.81;100.00
38852;BME280;24605;50.092;9.182;2022-12-17T02:28:03;98415.63;;;-9.95;100.00
38852;BME280;24605;50.092;9.182;2022-12-17T02:30:47;98411.41;;;-9.96;100.00
38852;BME280;24605;50.092;9.182;2022-12-17T02:33:32;98396.38;;;-10.03;100.00
38852;BME280;24605;50.092;9.182;2022-12-17T02:36:16;98407.44;;;-10.09;100.00
38852;BME280;24605;50.092;9.182;2022-12-17T02:39:00;98399.91;;;-10.12;100.00
38852;BME280;24605;50.092;9.182;2022-12-17T02:41:46;98411.53;;;-10.02;100.00
38852;BME280;24605;50.092;9.182;2022-12-17T02:44:34;98407.16;;;-9.92;100.00
38852;BME280;24605;50.092;9.182;2022-12-17T02:47:19;98408.06;;;-9.96;100.00
38852;BME280;24605;50.092;9.182;2022-12-17T02:50:06;98398.03;;;-10.04;100.00
38852;BME280;24605;50.092;9.182;2022-12-17T02:53:01;98398.28;;;-10.16;100.00
38852;BME280;24605;50.092;9.182;2022-12-17T02:55:45;98421.00;;;-10.10;100.00
38852;BME280;24605;50.092;9.182;2022-12-17T02:58:29;98431.13;;;-10.10;100.00
38852;BME280;24605;50.092;9.182;2022-12-17T03:01:15;98412.41;;;-10.03;100.00
38852;BME280;24605;50.092;9.182;2022-12-17T03:04:01;98431.09;;;-10.09;100.00
38852;BME280;24605;50.092;9.182;2022-12-17T03:06:45;98432.31;;;-10.30;100.00
38852;BME280;24605;50.092;9.182;2022-12-17T03:09:29;98437.31;;;-10.24;100.00
38852;BME280;24605;50.092;9.182;2022-12-17T03:12:13;98447.19;;;-10.11;100.00
38852;BME280;24605;50.092;9.182;2022-12-17T03:14:57;98436.53;;;-9.83;100.00
38852;BME280;24605;50.092;9.182;2022-12-17T03:17:45;98436.38;;;-9.74;100.00
38852;BME280;24605;50.092;9.182;2022-12-17T03:20:29;98431.59;;;-9.91;100.00
38852;BME280;24605;50.092;9.182;2022-12-17T03:23:13;98438.69;;;-10.07;100.00
38852;BME280;24605;50.092;9.182;2022-12-17T03:25:58;98435.72;;;-9.85;100.00
38852;BME280;24605;50.092;9.182;2022-12-17T03:28:42;98447.63;;;-9.87;100.00
38852;BME280;24605;50.092;9.182;2022-12-17T03:31:26;98443.97;;;-9.74;100.00
38852;BME280;24605;50.092;9.182;2022-12-17T03:34:11;98438.00;;;-9.70;100.00
38852;BME280;24605;50.092;9.182;2022-12-17T03:36:55;98445.47;;;-9.64;100.00
38852;BME280;24605;50.092;9.182;2022-12-17T03:39:39;98445.97;;;-9.90;100.00
38852;BME280;24605;50.092;9.182;2022-12-17T03:42:23;98446.03;;;-9.93;100.00
38852;BME280;24605;50.092;9.182;2022-12-17T03:45:08;98451.63;;;-9.77;100.00
38852;BME280;24605;50.092;9.182;2022-12-17T03:48:03;98454.25;;;-9.82;100.00
38852;BME280;24605;50.092;9.182;2022-12-17T03:50:48;98463.41;;;-9.73;100.00
38852;BME280;24605;50.092;9.182;2022-12-17T03:53:33;98451.81;;;-9.86;100.00
38852;BME280;24605;50.092;9.182;2022-12-17T03:56:16;98456.28;;;-9.99;100.00
38852;BME280;24605;50.092;9.182;2022-12-17T03:59:00;98462.50;;;-10.14;100.00
38852;BME280;24605;50.092;9.182;2022-12-17T04:01:44;98461.25;;;-9.95;100.00
38852;BME280;24605;50.092;9.182;2022-12-17T04:04:28;98461.59;;;-10.13;100.00
38852;BME280;24605;50.092;9.182;2022-12-17T04:07:14;98455.66;;;-10.12;100.00
38852;BME280;24605;50.092;9.182;2022-12-17T04:09:58;98463.34;;;-10.15;100.00
38852;BME280;24605;50.092;9.182;2022-12-17T04:12:43;98457.53;;;-10.22;100.00
38852;BME280;24605;50.092;9.182;2022-12-17T04:15:28;98473.66;;;-10.25;100.00
38852;BME280;24605;50.092;9.182;2022-12-17T04:18:12;98476.09;;;-10.20;100.00
38852;BME280;24605;50.092;9.182;2022-12-17T04:21:01;98468.41;;;-10.17;100.00
38852;BME280;24605;50.092;9.182;2022-12-17T04:23:46;98473.66;;;-10.25;100.00
38852;BME280;24605;50.092;9.182;2022-12-17T04:26:30;98484.56;;;-10.21;100.00
38852;BME280;24605;50.092;9.182;2022-12-17T04:29:14;98487.13;;;-10.23;100.00
38852;BME280;24605;50.092;9.182;2022-12-17T04:31:58;98489.66;;;-10.23;100.00
38852;BME280;24605;50.092;9.182;2022-12-17T04:34:42;98490.53;;;-10.24;100.00
38852;BME280;24605;50.092;9.182;2022-12-17T04:37:41;98494.59;;;-10.15;100.00
38852;BME280;24605;50.092;9.182;2022-12-17T04:40:26;98497.28;;;-10.24;100.00
38852;BME280;24605;50.092;9.182;2022-12-17T04:43:11;98499.75;;;-10.19;100.00
38852;BME280;24605;50.092;9.182;2022-12-17T04:45:56;98504.75;;;-10.16;100.00
38852;BME280;24605;50.092;9.182;2022-12-17T04:48:40;98498.91;;;-10.20;100.00
38852;BME280;24605;50.092;9.182;2022-12-17T04:51:24;98508.28;;;-10.25;100.00
38852;BME280;24605;50.092;9.182;2022-12-17T04:54:08;98503.56;;;-10.45;100.00
38852;BME280;24605;50.092;9.182;2022-12-17T04:56:53;98490.38;;;-10.66;100.00
38852;BME280;24605;50.092;9.182;2022-12-17T04:59:37;98512.16;;;-10.54;100.00
38852;BME280;24605;50.092;9.182;2022-12-17T05:02:21;98512.81;;;-10.41;100.00
38852;BME280;24605;50.092;9.182;2022-12-17T05:05:06;98520.56;;;-10.52;100.00
38852;BME280;24605;50.092;9.182;2022-12-17T05:07:55;98504.69;;;-10.65;100.00
38852;BME280;24605;50.092;9.182;2022-12-17T05:10:40;98493.66;;;-10.59;100.00
38852;BME280;24605;50.092;9.182;2022-12-17T05:13:25;98515.91;;;-10.27;100.00
38852;BME280;24605;50.092;9.182;2022-12-17T05:16:10;98520.22;;;-10.32;100.00
38852;BME280;24605;50.092;9.182;2022-12-17T05:18:54;98534.69;;;-10.37;100.00
38852;BME280;24605;50.092;9.182;2022-12-17T05:21:38;98535.63;;;-10.41;100.00
38852;BME280;24605;50.092;9.182;2022-12-17T05:24:22;98496.78;;;-10.43;100.00
38852;BME280;24605;50.092;9.182;2022-12-17T05:27:06;98534.13;;;-10.04;100.00
38852;BME280;24605;50.092;9.182;2022-12-17T05:29:52;98493.44;;;-10.45;100.00
38852;BME280;24605;50.092;9.182;2022-12-17T05:32:36;98535.63;;;-10.41;100.00
38852;BME280;24605;50.092;9.182;2022-12-17T05:35:20;98538.13;;;-10.40;100.00
38852;BME280;24605;50.092;9.182;2022-12-17T05:38:05;98535.63;;;-10.41;100.00
38852;BME280;24605;50.092;9.182;2022-12-17T05:40:49;98534.81;;;-10.45;100.00
38852;BME280;24605;50.092;9.182;2022-12-17T05:43:33;98535.75;;;-10.50;100.00
38852;BME280;24605;50.092;9.182;2022-12-17T05:46:18;98545.56;;;-10.32;100.00
38852;BME280;24605;50.092;9.182;2022-12-17T05:49:03;98543.03;;;-10.33;100.00
38852;BME280;24605;50.092;9.182;2022-12-17T05:51:47;98547.28;;;-10.35;100.00
38852;BME280;24605;50.092;9.182;2022-12-17T05:54:31;98545.84;;;-10.49;100.00
38852;BME280;24605;50.092;9.182;2022-12-17T05:57:15;98549.31;;;-10.55;100.00
38852;BME280;24605;50.092;9.182;2022-12-17T05:59:59;98551.81;;;-10.53;100.00
38852;BME280;24605;50.092;9.182;2022-12-17T06:02:44;98548.56;;;-10.60;100.00
38852;BME280;24605;50.092;9.182;2022-12-17T06:05:40;98558.00;;;-10.71;100.00
38852;BME280;24605;50.092;9.182;2022-12-17T06:08:24;98561.34;;;-10.71;100.00
38852;BME280;24605;50.092;9.182;2022-12-17T06:11:08;98563.75;;;-10.61;100.00
38852;BME280;24605;50.092;9.182;2022-12-17T06:13:52;98571.38;;;-10.63;100.00
38852;BME280;24605;50.092;9.182;2022-12-17T06:16:36;98577.28;;;-10.61;100.00
38852;BME280;24605;50.092;9.182;2022-12-17T06:19:22;98578.03;;;-10.54;100.00
38852;BME280;24605;50.092;9.182;2022-12-17T06:22:06;98577.97;;;-10.51;100.00
38852;BME280;24605;50.092;9.182;2022-12-17T06:24:50;98573.56;;;-10.38;100.00
38852;BME280;24605;50.092;9.182;2022-12-17T06:27:34;98577.56;;;-10.26;100.00
38852;BME280;24605;50.092;9.182;2022-12-17T06:30:18;98578.53;;;-10.32;100.00
38852;BME280;24605;50.092;9.182;2022-12-17T06:33:03;98589.63;;;-10.39;100.00
38852;BME280;24605;50.092;9.182;2022-12-17T06:35:51;98580.91;;;-10.23;100.00
38852;BME280;24605;50.092;9.182;2022-12-17T06:38:35;98592.28;;;-10.47;100.00
38852;BME280;24605;50.092;9.182;2022-12-17T06:41:19;98595.81;;;-10.60;100.00
38852;BME280;24605;50.092;9.182;2022-12-17T06:43:59;98598.97;;;-10.43;100.00
38852;BME280;24605;50.092;9.182;2022-12-17T06:46:44;98596.69;;;-10.60;100.00
38852;BME280;24605;50.092;9.182;2022-12-17T06:49:28;98608.69;;;-10.73;100.00
38852;BME280;24605;50.092;9.182;2022-12-17T06:52:13;98613.47;;;-10.52;100.00
38852;BME280;24605;50.092;9.182;2022-12-17T06:54:57;98582.34;;;-10.61;100.00
38852;BME280;24605;50.092;9.182;2022-12-17T06:57:41;98615.88;;;-10.43;100.00
38852;BME280;24605;50.092;9.182;2022-12-17T07:00:25;98617.03;;;-10.67;100.00
38852;BME280;24605;50.092;9.182;2022-12-17T07:03:10;98622.16;;;-10.72;100.00
38852;BME280;24605;50.092;9.182;2022-12-17T07:05:54;98631.41;;;-10.68;100.00
38852;BME280;24605;50.092;9.182;2022-12-17T07:08:40;98629.59;;;-10.58;100.00
38852;BME280;24605;50.092;9.182;2022-12-17T07:11:24;98634.50;;;-10.46;100.00
38852;BME280;24605;50.092;9.182;2022-12-17T07:14:04;98643.91;;;-10.56;100.00
38852;BME280;24605;50.092;9.182;2022-12-17T07:16:48;98657.41;;;-10.57;100.00
38852;BME280;24605;50.092;9.182;2022-12-17T07:19:32;98654.91;;;-10.58;100.00
38852;BME280;24605;50.092;9.182;2022-12-17T07:22:16;98657.41;;;-10.57;100.00
38852;BME280;24605;50.092;9.182;2022-12-17T07:25:02;98664.13;;;-10.52;100.00
38852;BME280;24605;50.092;9.182;2022-12-17T07:27:51;98668.28;;;-10.48;100.00
38852;BME280;24605;50.092;9.182;2022-12-17T07:30:35;98671.63;;;-10.43;100.00
38852;BME280;24605;50.092;9.182;2022-12-17T07:33:20;98676.69;;;-10.43;100.00
38852;BME280;24605;50.092;9.182;2022-12-17T07:36:04;98657.41;;;-10.57;100.00
38852;BME280;24605;50.092;9.182;2022-12-17T07:38:48;98665.69;;;-10.42;100.00
38852;BME280;24605;50.092;9.182;2022-12-17T07:41:34;98678.31;;;-10.39;100.00
38852;BME280;24605;50.092;9.182;2022-12-17T07:44:17;98694.22;;;-10.29;100.00
38852;BME280;24605;50.092;9.182;2022-12-17T07:47:02;98632.28;;;-10.72;100.00
38852;BME280;24605;50.092;9.182;2022-12-17T07:49:45;98706.56;;;-10.04;100.00
38852;BME280;24605;50.092;9.182;2022-12-17T07:52:31;98702.38;;;-10.07;100.00
38852;BME280;24605;50.092;9.182;2022-12-17T07:55:15;98717.59;;;-10.09;100.00
38852;BME280;24605;50.092;9.182;2022-12-17T07:58:02;98718.41;;;-10.05;100.00
38852;BME280;24605;50.092;9.182;2022-12-17T08:00:46;98723.53;;;-10.10;100.00
38852;BME280;24605;50.092;9.182;2022-12-17T08:03:30;98724.44;;;-10.17;100.00
38852;BME280;24605;50.092;9.182;2022-12-17T08:06:14;98731.09;;;-10.05;100.00
38852;BME280;24605;50.092;9.182;2022-12-17T08:08:59;98731.94;;;-10.08;100.00
38852;BME280;24605;50.092;9.182;2022-12-17T08:11:43;98730.19;;;-10.04;100.00
38852;BME280;24605;50.092;9.182;2022-12-17T08:14:28;98732.66;;;-9.98;100.00
38852;BME280;24605;50.092;9.182;2022-12-17T08:17:13;98725.91;;;-10.00;100.00
38852;BME280;24605;50.092;9.182;2022-12-17T08:19:57;98688.00;;;-10.08;100.00
38852;BME280;24605;50.092;9.182;2022-12-17T08:22:41;98748.28;;;-9.66;100.00
38852;BME280;24605;50.092;9.182;2022-12-17T08:25:25;98745.69;;;-9.63;100.00
38852;BME280;24605;50.092;9.182;2022-12-17T08:28:09;98758.25;;;-9.55;100.00
38852;BME280;24605;50.092;9.182;2022-12-17T08:30:55;98747.16;;;-9.48;100.00
38852;BME280;24605;50.092;9.182;2022-12-17T08:33:39;98742.84;;;-9.43;100.00
38852;BME280;24605;50.092;9.182;2022-12-17T08:36:23;98764.72;;;-9.34;100.00
38852;BME280;24605;50.092;9.182;2022-12-17T08:39:07;98770.59;;;-9.34;100.00
38852;BME280;24605;50.092;9.182;2022-12-17T08:41:50;98774.75;;;-9.28;100.00
38852;BME280;24605;50.092;9.182;2022-12-17T08:44:35;98772.88;;;-9.17;100.00
38852;BME280;24605;50.092;9.182;2022-12-17T08:47:20;98764.50;;;-9.20;100.00
38852;BME280;24605;50.092;9.182;2022-12-17T08:50:05;98757.84;;;-9.27;100.00
38852;BME280;24605;50.092;9.182;2022-12-17T08:52:55;98780.31;;;-9.04;100.00
38852;BME280;24605;50.092;9.182;2022-12-17T08:55:39;98758.56;;;-9.19;100.00
38852;BME280;24605;50.092;9.182;2022-12-17T08:58:23;98779.34;;;-8.97;100.00
38852;BME280;24605;50.092;9.182;2022-12-17T09:01:07;98782.72;;;-8.97;100.00
38852;BME280;24605;50.092;9.182;2022-12-17T09:03:53;98786.88;;;-8.94;100.00
38852;BME280;24605;50.092;9.182;2022-12-17T09:06:37;98786.66;;;-8.80;100.00
38852;BME280;24605;50.092;9.182;2022-12-17T09:09:20;98787.34;;;-8.72;100.00
38852;BME280;24605;50.092;9.182;2022-12-17T09:12:04;98797.34;;;-8.62;100.00
38852;BME280;24605;50.092;9.182;2022-12-17T09:14:48;98792.63;;;-8.37;100.00
38852;BME280;24605;50.092;9.182;2022-12-17T09:17:32;98789.94;;;-8.29;100.00
38852;BME280;24605;50.092;9.182;2022-12-17T09:20:17;98786.31;;;-8.18;100.00
38852;BME280;24605;50.092;9.182;2022-12-17T09:23:01;98790.22;;;-8.01;100.00
38852;BME280;24605;50.092;9.182;2022-12-17T09:25:51;98779.81;;;-7.90;100.00
38852;BME280;24605;50.092;9.182;2022-12-17T09:28:35;98802.75;;;-7.92;100.00
38852;BME280;24605;50.092;9.182;2022-12-17T09:31:19;98799.44;;;-7.97;100.00
38852;BME280;24605;50.092;9.182;2022-12-17T09:34:03;98798.66;;;-7.99;100.00
38852;BME280;24605;50.092;9.182;2022-12-17T09:36:48;98805.31;;;-7.92;100.00
38852;BME280;24605;50.092;9.182;2022-12-17T09:39:32;98804.34;;;-7.88;100.00
38852;BME280;24605;50.092;9.182;2022-12-17T09:42:20;98800.50;;;-7.66;100.00
38852;BME280;24605;50.092;9.182;2022-12-17T09:45:11;98809.16;;;-7.34;100.00
38852;BME280;24605;50.092;9.182;2022-12-17T09:48:04;98812.41;;;-7.29;100.00
38852;BME280;24605;50.092;9.182;2022-12-17T09:50:51;98815.00;;;-7.31;100.00
38852;BME280;24605;50.092;9.182;2022-12-17T09:53:39;98812.78;;;-7.09;100.00
38852;BME280;24605;50.092;9.182;2022-12-17T09:56:27;98821.22;;;-6.70;100.00
38852;BME280;24605;50.092;9.182;2022-12-17T09:59:18;98819.03;;;-6.86;100.00
38852;BME280;24605;50.092;9.182;2022-12-17T10:02:11;98803.03;;;-6.91;100.00
38852;BME280;24605;50.092;9.182;2022-12-17T10:04:56;98811.59;;;-6.95;100.00
38852;BME280;24605;50.092;9.182;2022-12-17T10:07:42;98813.28;;;-6.94;100.00
38852;BME280;24605;50.092;9.182;2022-12-17T10:10:31;98813.22;;;-6.91;100.00
38852;BME280;24605;50.092;9.182;2022-12-17T10:13:17;98817.56;;;-6.62;100.00
38852;BME280;24605;50.092;9.182;2022-12-17T10:16:04;98812.78;;;-6.41;100.00
38852;BME280;24605;50.092;9.182;2022-12-17T10:18:57;98816.56;;;-6.56;100.00
38852;BME280;24605;50.092;9.182;2022-12-17T10:21:42;98797.28;;;-6.66;100.00
38852;BME280;24605;50.092;9.182;2022-12-17T10:24:26;98811.19;;;-6.45;100.00
38852;BME280;24605;50.092;9.182;2022-12-17T10:27:26;98795.22;;;-6.20;100.00
38852;BME280;24605;50.092;9.182;2022-12-17T10:30:14;98813.00;;;-5.89;100.00
38852;BME280;24605;50.092;9.182;2022-12-17T10:33:03;98813.47;;;-5.74;100.00
38852;BME280;24605;50.092;9.182;2022-12-17T10:36:03;98817.38;;;-5.62;100.00
38852;BME280;24605;50.092;9.182;2022-12-17T10:38:53;98816.63;;;-5.66;100.00
38852;BME280;24605;50.092;9.182;2022-12-17T10:41:41;98810.47;;;-5.89;100.00
38852;BME280;24605;50.092;9.182;2022-12-17T10:44:29;98824.28;;;-5.96;100.00
38852;BME280;24605;50.092;9.182;2022-12-17T10:47:15;98817.66;;;-6.00;100.00
38852;BME280;24605;50.092;9.182;2022-12-17T10:50:00;98824.66;;;-5.78;100.00
38852;BME280;24605;50.092;9.182;2022-12-17T10:52:45;98804.81;;;-5.70;100.00
38852;BME280;24605;50.092;9.182;2022-12-17T10:55:32;98827.38;;;-5.28;100.00
38852;BME280;24605;50.092;9.182;2022-12-17T10:58:22;98823.28;;;-5.05;100.00
38852;BME280;24605;50.092;9.182;2022-12-17T11:01:17;98825.50;;;-4.94;100.00
38852;BME280;24605;50.092;9.182;2022-12-17T11:04:01;98823.03;;;-4.97;100.00
38852;BME280;24605;50.092;9.182;2022-12-17T11:06:48;98812.88;;;-4.99;100.00
38852;BME280;24605;50.092;9.182;2022-12-17T11:09:38;98805.72;;;-4.89;100.00
38852;BME280;24605;50.092;9.182;2022-12-17T11:12:26;98814.09;;;-4.84;100.00
38852;BME280;24605;50.092;9.182;2022-12-17T11:15:19;98809.03;;;-4.85;100.00
38852;BME280;24605;50.092;9.182;2022-12-17T11:18:11;98831.31;;;-4.64;100.00
38852;BME280;24605;50.092;9.182;2022-12-17T11:21:04;98834.66;;;-4.62;100.00
38852;BME280;24605;50.092;9.182;2022-12-17T11:23:50;98834.03;;;-4.68;100.00
38852;BME280;24605;50.092;9.182;2022-12-17T11:26:37;98837.84;;;-4.80;100.00
38852;BME280;24605;50.092;9.182;2022-12-17T11:29:22;98824.97;;;-4.77;100.00
38852;BME280;24605;50.092;9.182;2022-12-17T11:32:35;98827.63;;;-4.55;100.00
38852;BME280;24605;50.092;9.182;2022-12-17T11:35:36;98834.69;;;-4.36;100.00
38852;BME280;24605;50.092;9.182;2022-12-17T11:38:35;98824.19;;;-4.54;100.00
38852;BME280;24605;50.092;9.182;2022-12-17T11:41:25;98836.13;;;-4.54;100.00
38852;BME280;24605;50.092;9.182;2022-12-17T11:44:23;98831.13;;;-4.32;100.00
38852;BME280;24605;50.092;9.182;2022-12-17T11:47:17;98816.16;;;-4.43;100.00
38852;BME280;24605;50.092;9.182;2022-12-17T11:50:15;98839.28;;;-4.21;100.00
38852;BME280;24605;50.092;9.182;2022-12-17T11:53:14;98846.56;;;-4.10;100.00
38852;BME280;24605;50.092;9.182;2022-12-17T11:56:06;98845.00;;;-4.14;100.00
38852;BME280;24605;50.092;9.182;2022-12-17T11:58:58;98807.44;;;-4.39;100.00
38852;BME280;24605;50.092;9.182;2022-12-17T12:01:54;98841.88;;;-4.22;100.00
38852;BME280;24605;50.092;9.182;2022-12-17T12:07:58;98820.47;;;-4.20;100.00
38852;BME280;24605;50.092;9.182;2022-12-17T12:10:54;98830.63;;;-4.18;100.00
38852;BME280;24605;50.092;9.182;2022-12-17T12:13:44;98843.78;;;-4.04;100.00
38852;BME280;24605;50.092;9.182;2022-12-17T12:16:34;98843.75;;;-4.02;100.00
38852;BME280;24605;50.092;9.182;2022-12-17T12:19:28;98842.00;;;-4.02;100.00
38852;BME280;24605;50.092;9.182;2022-12-17T12:22:19;98850.78;;;-3.84;100.00
38852;BME280;24605;50.092;9.182;2022-12-17T12:25:19;98853.66;;;-3.93;100.00
38852;BME280;24605;50.092;9.182;2022-12-17T12:28:12;98842.00;;;-4.02;100.00
38852;BME280;24605;50.092;9.182;2022-12-17T12:31:03;98847.91;;;-4.00;100.00
38852;BME280;24605;50.092;9.182;2022-12-17T12:33:52;98843.19;;;-3.87;100.00
38852;BME280;24605;50.092;9.182;2022-12-17T12:36:39;98853.19;;;-3.81;100.00
38852;BME280;24605;50.092;9.182;2022-12-17T12:39:27;98842.06;;;-3.80;100.00
38852;BME280;24605;50.092;9.182;2022-12-17T12:42:20;98836.22;;;-3.83;100.00
38852;BME280;24605;50.092;9.182;2022-12-17T12:45:27;98852.31;;;-3.80;100.00
38852;BME280;24605;50.092;9.182;2022-12-17T12:48:20;98851.31;;;-3.75;100.00
38852;BME280;24605;50.092;9.182;2022-12-17T12:51:12;98846.75;;;-3.67;100.00
38852;BME280;24605;50.092;9.182;2022-12-17T12:53:59;98845.28;;;-3.74;100.00
38852;BME280;24605;50.092;9.182;2022-12-17T12:56:43;98840.13;;;-3.73;100.00
38852;BME280;24605;50.092;9.182;2022-12-17T12:59:28;98851.03;;;-3.68;100.00
38852;BME280;24605;50.092;9.182;2022-12-17T13:02:24;98836.50;;;-3.67;100.00
38852;BME280;24605;50.092;9.182;2022-12-17T13:05:25;98848.13;;;-3.58;100.00
38852;BME280;24605;50.092;9.182;2022-12-17T13:08:03;98861.94;;;-3.63;100.00
38852;BME280;24605;50.092;9.182;2022-12-17T13:10:30;98864.50;;;-3.63;100.00
38852;BME280;24605;50.092;9.182;2022-12-17T13:12:59;98864.84;;;-3.72;100.00
38852;BME280;24605;50.092;9.182;2022-12-17T13:15:34;98857.81;;;-3.67;100.00
38852;BME280;24605;50.092;9.182;2022-12-17T13:18:15;98853.16;;;-3.79;100.00
38852;BME280;24605;50.092;9.182;2022-12-17T13:20:55;98828.97;;;-3.96;100.00
38852;BME280;24605;50.092;9.182;2022-12-17T13:23:29;98856.94;;;-3.89;100.00
38852;BME280;24605;50.092;9.182;2022-12-17T13:26:18;98853.09;;;-4.01;100.00
38852;BME280;24605;50.092;9.182;2022-12-17T13:28:59;98854.19;;;-3.61;100.00
38852;BME280;24605;50.092;9.182;2022-12-17T13:31:27;98854.19;;;-3.61;100.00
38852;BME280;24605;50.092;9.182;2022-12-17T13:34:02;98852.53;;;-3.86;100.00
38852;BME280;24605;50.092;9.182;2022-12-17T13:36:39;98854.31;;;-3.88;100.00
38852;BME280;24605;50.092;9.182;2022-12-17T13:39:19;98857.44;;;-4.03;100.00
38852;BME280;24605;50.092;9.182;2022-12-17T13:41:52;98849.81;;;-3.81;100.00
38852;BME280;24605;50.092;9.182;2022-12-17T13:44:21;98856.22;;;-3.93;100.00
38852;BME280;24605;50.092;9.182;2022-12-17T13:46:53;98855.91;;;-4.09;100.00
38852;BME280;24605;50.092;9.182;2022-12-17T13:49:23;98858.00;;;-3.95;100.00
38852;BME280;24605;50.092;9.182;2022-12-17T13:51:59;98864.78;;;-3.94;100.00
38852;BME280;24605;50.092;9.182;2022-12-17T13:54:26;98827.97;;;-4.15;100.00
38852;BME280;24605;50.092;9.182;2022-12-17T13:56:53;98857.59;;;-4.08;100.00
38852;BME280;24605;50.092;9.182;2022-12-17T13:59:21;98859.13;;;-4.04;100.00
38852;BME280;24605;50.092;9.182;2022-12-17T14:01:50;98861.44;;;-3.96;100.00
38852;BME280;24605;50.092;9.182;2022-12-17T14:04:24;98864.25;;;-4.04;100.00
38852;BME280;24605;50.092;9.182;2022-12-17T14:06:51;98857.78;;;-4.14;100.00
38852;BME280;24605;50.092;9.182;2022-12-17T14:09:21;98857.47;;;-4.05;100.00
38852;BME280;24605;50.092;9.182;2022-12-17T14:11:48;98849.44;;;-4.19;100.00
38852;BME280;24605;50.092;9.182;2022-12-17T14:14:35;98849.34;;;-4.16;100.00
38852;BME280;24605;50.092;9.182;2022-12-17T14:17:02;98865.59;;;-4.17;100.00
38852;BME280;24605;50.092;9.182;2022-12-17T14:19:31;98865.81;;;-4.23;100.00
38852;BME280;24605;50.092;9.182;2022-12-17T14:21:59;98841.72;;;-4.43;100.00
38852;BME280;24605;50.092;9.182;2022-12-17T14:24:26;98862.00;;;-4.37;100.00